Time;durP1;ratioP1;P1;durP2;ratioP2;P2;SDS_P1;SDS_P2;PMS_P1;PMS_P2;Temp;Humidity;BMP_temperature;BMP_pressure;BME280_temperature;BME280_humidity;BME280_pressure;Samples;Min_cycle;Max_cycle;Signal;HPM_P1;HPM_P2
2022/02/25 00:02:00;;;;;;;1.87;1.20;;;9.30;56.30;;;;;;5031017;28;20521;-45
2022/02/25 00:04:26;;;;;;;2.43;1.00;;;9.00;56.00;;;;;;5029864;28;20197;-46
2022/02/25 00:06:52;;;;;;;1.30;0.80;;;8.90;56.50;;;;;;5031005;28;20428;-49
2022/02/25 00:09:17;;;;;;;1.23;0.93;;;8.70;56.60;;;;;;5040474;28;20192;-46
2022/02/25 00:11:43;;;;;;;1.20;0.80;;;8.50;56.60;;;;;;5030871;28;20197;-45
2022/02/25 00:14:09;;;;;;;1.40;0.87;;;8.50;56.10;;;;;;5028060;28;20706;-48
2022/02/25 00:16:34;;;;;;;2.00;1.20;;;8.20;56.10;;;;;;5030632;28;20490;-51
2022/02/25 00:19:00;;;;;;;2.77;1.00;;;8.20;56.20;;;;;;5030187;28;20197;-49
2022/02/25 00:21:25;;;;;;;4.40;0.87;;;8.10;55.70;;;;;;5030786;28;20525;-45
2022/02/25 00:23:51;;;;;;;4.93;1.23;;;8.20;55.90;;;;;;5029865;28;20193;-47
2022/02/25 00:26:17;;;;;;;4.73;1.00;;;8.10;56.00;;;;;;5030235;28;20201;-50
2022/02/25 00:28:42;;;;;;;3.30;0.97;;;7.90;56.20;;;;;;5029907;28;20195;-47
2022/02/25 00:31:08;;;;;;;2.97;1.00;;;8.10;56.70;;;;;;5030819;28;20193;-46
2022/02/25 00:33:33;;;;;;;1.13;1.00;;;8.20;56.70;;;;;;5029594;28;20209;-47
2022/02/25 00:35:59;;;;;;;2.30;1.10;;;8.50;56.70;;;;;;5030045;28;20246;-45
2022/02/25 00:38:24;;;;;;;3.00;1.10;;;8.30;56.10;;;;;;5029869;28;20216;-49
2022/02/25 00:40:50;;;;;;;3.60;0.87;;;8.30;56.50;;;;;;5039076;28;20195;-46
2022/02/25 00:43:16;;;;;;;2.87;1.00;;;8.10;56.10;;;;;;5049170;28;20536;-46
2022/02/25 00:45:41;;;;;;;1.20;0.90;;;8.10;56.60;;;;;;5030530;28;20200;-45
2022/02/25 00:48:07;;;;;;;2.37;1.03;;;8.10;56.80;;;;;;5031470;28;20740;-47
2022/02/25 00:50:33;;;;;;;1.43;0.87;;;8.00;56.40;;;;;;5033939;28;20199;-48
2022/02/25 00:52:58;;;;;;;3.07;1.03;;;7.90;56.40;;;;;;5033086;28;20281;-46
2022/02/25 00:55:24;;;;;;;3.50;2.13;;;7.90;56.50;;;;;;5033879;28;20751;-46
2022/02/25 00:57:50;;;;;;;2.00;1.17;;;7.90;56.40;;;;;;5033521;28;20277;-50
2022/02/25 01:00:18;;;;;;;1.50;0.90;;;7.80;56.40;;;;;;5033923;28;20809;-46
2022/02/25 01:02:45;;;;;;;4.13;1.23;;;8.00;56.80;;;;;;5033237;28;20427;-46
2022/02/25 01:05:11;;;;;;;3.33;1.40;;;7.90;56.70;;;;;;5034259;28;20977;-47
2022/02/25 01:07:41;;;;;;;2.20;1.20;;;7.90;56.70;;;;;;5032322;28;20416;-50
2022/02/25 01:10:10;;;;;;;1.50;1.13;;;8.10;56.80;;;;;;5043341;28;20515;-46
2022/02/25 01:12:36;;;;;;;3.70;1.37;;;7.90;56.50;;;;;;5032635;28;20466;-46
2022/02/25 01:15:02;;;;;;;2.27;1.13;;;7.90;57.00;;;;;;5033559;28;20486;-45
2022/02/25 01:17:29;;;;;;;1.83;1.17;;;7.90;56.90;;;;;;5033325;28;20432;-48
2022/02/25 01:19:56;;;;;;;2.60;1.30;;;7.90;56.60;;;;;;5033162;28;20428;-46
2022/02/25 01:22:22;;;;;;;1.33;1.03;;;8.00;56.60;;;;;;5033464;28;20474;-48
2022/02/25 01:24:48;;;;;;;1.40;1.30;;;7.90;56.50;;;;;;5033116;28;20567;-46
2022/02/25 01:27:14;;;;;;;2.00;1.23;;;7.90;56.80;;;;;;5033384;28;20507;-47
2022/02/25 01:29:40;;;;;;;2.00;1.27;;;8.00;56.60;;;;;;5048593;28;20209;-45
2022/02/25 01:32:06;;;;;;;3.13;1.10;;;7.70;57.10;;;;;;5033305;28;20193;-49
2022/02/25 01:34:31;;;;;;;2.00;1.43;;;7.70;57.10;;;;;;5032882;28;20499;-46
2022/02/25 01:36:57;;;;;;;3.33;1.17;;;7.60;57.40;;;;;;5032327;28;20424;-50
2022/02/25 01:39:23;;;;;;;1.73;1.53;;;7.60;57.50;;;;;;5032911;28;20634;-48
2022/02/25 01:41:49;;;;;;;2.00;1.03;;;7.70;56.90;;;;;;5051212;28;20267;-50
2022/02/25 01:44:24;;;;;;;1.73;1.13;;;7.50;57.10;;;;;;5044735;28;20200;-47
2022/02/25 01:46:53;;;;;;;3.17;1.20;;;7.60;57.20;;;;;;5033367;28;20196;-46
2022/02/25 01:49:19;;;;;;;4.23;1.33;;;7.70;57.10;;;;;;5032487;28;20927;-46
2022/02/25 01:51:47;;;;;;;3.23;1.13;;;7.60;56.60;;;;;;5032975;28;20423;-48
2022/02/25 01:54:14;;;;;;;2.53;1.47;;;7.50;56.80;;;;;;5032306;28;20424;-45
2022/02/25 01:56:41;;;;;;;1.67;1.20;;;7.60;56.40;;;;;;5032911;28;20905;-49
2022/02/25 01:59:08;;;;;;;1.30;1.20;;;7.30;56.00;;;;;;5031381;28;20570;-46
2022/02/25 02:01:34;;;;;;;4.80;1.43;;;7.20;56.40;;;;;;5033006;28;20497;-47
2022/02/25 02:04:00;;;;;;;2.27;1.23;;;7.20;56.50;;;;;;5030088;28;20797;-45
2022/02/25 02:06:26;;;;;;;4.83;1.10;;;7.20;56.30;;;;;;5032766;28;20812;-47
2022/02/25 02:08:52;;;;;;;2.67;1.30;;;7.40;56.60;;;;;;5039264;28;20419;-48
2022/02/25 02:11:31;;;;;;;1.23;0.90;;;7.40;56.20;;;;;;5035435;28;20193;-46
2022/02/25 02:13:58;;;;;;;2.67;1.30;;;7.20;56.40;;;;;;5031935;28;20319;-47
2022/02/25 02:16:23;;;;;;;1.83;1.00;;;7.10;56.50;;;;;;5032233;28;20545;-47
2022/02/25 02:18:49;;;;;;;1.87;1.13;;;7.10;56.60;;;;;;5032175;28;20865;-45
2022/02/25 02:21:15;;;;;;;2.30;1.20;;;7.20;56.40;;;;;;5032431;28;20275;-47
2022/02/25 02:23:41;;;;;;;1.67;1.00;;;7.10;56.40;;;;;;5031244;28;20276;-45
2022/02/25 02:26:06;;;;;;;6.47;1.20;;;7.30;56.30;;;;;;5032543;28;20287;-45
2022/02/25 02:28:32;;;;;;;1.47;0.80;;;7.30;55.90;;;;;;5031751;28;20181;-45
2022/02/25 02:30:57;;;;;;;2.63;1.10;;;7.30;55.90;;;;;;5030446;28;20200;-46
2022/02/25 02:33:23;;;;;;;2.83;1.20;;;7.20;55.70;;;;;;5031311;28;20197;-47
2022/02/25 02:35:51;;;;;;;4.23;1.30;;;7.10;55.80;;;;;;5032082;28;20677;-50
2022/02/25 02:38:17;;;;;;;1.27;0.80;;;7.10;55.80;;;;;;5031786;28;20217;-47
2022/02/25 02:40:43;;;;;;;1.43;0.90;;;7.10;55.70;;;;;;5041091;28;20501;-48
2022/02/25 02:43:10;;;;;;;3.57;1.10;;;7.10;55.70;;;;;;5050999;28;20239;-46
2022/02/25 02:45:37;;;;;;;4.03;1.00;;;7.10;55.60;;;;;;5032619;28;20204;-49
2022/02/25 02:48:04;;;;;;;1.30;1.20;;;7.40;55.40;;;;;;5031597;28;20427;-45
2022/02/25 02:50:30;;;;;;;2.50;1.10;;;7.10;54.50;;;;;;5032103;28;20539;-45
2022/02/25 02:52:56;;;;;;;4.70;1.00;;;7.30;54.70;;;;;;5031278;28;20443;-48
2022/02/25 02:55:22;;;;;;;2.20;0.90;;;7.30;54.50;;;;;;5030512;28;20577;-46
2022/02/25 02:57:52;;;;;;;2.60;0.90;;;7.40;54.10;;;;;;5029746;28;20978;-48
2022/02/25 03:00:18;;;;;;;3.80;1.10;;;7.60;53.90;;;;;;5031887;28;20432;-50
2022/02/25 03:02:44;;;;;;;2.07;0.93;;;7.40;53.70;;;;;;5030882;28;20473;-46
2022/02/25 03:05:10;;;;;;;4.10;0.80;;;7.50;53.60;;;;;;5031488;28;20425;-45
2022/02/25 03:07:36;;;;;;;1.33;0.90;;;7.40;53.60;;;;;;5031189;28;20190;-46
2022/02/25 03:10:05;;;;;;;5.50;1.13;;;7.60;53.10;;;;;;5041559;28;20427;-45
2022/02/25 03:12:31;;;;;;;2.00;1.10;;;7.70;53.10;;;;;;5030723;28;20511;-46
2022/02/25 03:14:57;;;;;;;1.70;1.00;;;7.80;52.90;;;;;;5031332;28;20483;-49
2022/02/25 03:17:23;;;;;;;4.90;1.30;;;8.00;52.60;;;;;;5031459;28;20435;-45
2022/02/25 03:19:49;;;;;;;2.23;1.17;;;8.00;52.60;;;;;;5030930;28;20642;-46
2022/02/25 03:22:14;;;;;;;2.00;1.03;;;8.20;52.20;;;;;;5030862;28;20201;-46
2022/02/25 03:24:40;;;;;;;6.07;1.40;;;8.40;51.90;;;;;;5029053;28;20193;-47
2022/02/25 03:27:06;;;;;;;2.60;1.00;;;8.50;51.50;;;;;;5031305;28;20193;-46
2022/02/25 03:29:31;;;;;;;4.10;1.40;;;8.60;51.60;;;;;;5030778;28;20224;-46
2022/02/25 03:31:57;;;;;;;3.87;1.50;;;8.70;51.30;;;;;;5030972;28;20424;-47
2022/02/25 03:34:23;;;;;;;6.53;1.30;;;8.90;51.00;;;;;;5030863;28;20672;-47
2022/02/25 03:36:48;;;;;;;1.77;1.40;;;8.90;50.80;;;;;;5031098;28;20563;-45
2022/02/25 03:39:14;;;;;;;8.10;1.73;;;9.00;50.80;;;;;;5030683;28;20555;-49
2022/02/25 03:41:40;;;;;;;3.60;1.20;;;9.10;50.80;;;;;;5047702;28;20236;-48
2022/02/25 03:44:05;;;;;;;1.67;0.80;;;9.10;50.70;;;;;;5043543;28;20251;-45
2022/02/25 03:46:31;;;;;;;1.40;0.90;;;9.10;50.80;;;;;;5031107;28;20272;-46
2022/02/25 03:48:56;;;;;;;3.30;1.20;;;9.10;50.90;;;;;;5030235;28;20572;-48
2022/02/25 03:51:23;;;;;;;4.67;1.37;;;9.20;50.90;;;;;;5029543;28;20185;-45
2022/02/25 03:53:49;;;;;;;3.60;0.90;;;9.20;50.80;;;;;;5029814;28;20193;-46
2022/02/25 03:56:16;;;;;;;2.67;1.37;;;9.10;50.50;;;;;;5030912;28;20548;-46
2022/02/25 03:58:42;;;;;;;3.37;0.90;;;9.10;50.50;;;;;;5030284;28;20197;-46
2022/02/25 04:01:08;;;;;;;4.50;1.20;;;9.10;50.70;;;;;;5030984;28;20470;-46
2022/02/25 04:03:34;;;;;;;3.03;1.43;;;9.10;50.80;;;;;;5029682;28;20424;-45
2022/02/25 04:06:00;;;;;;;1.27;1.00;;;9.20;50.70;;;;;;5030808;28;20866;-46
2022/02/25 04:08:26;;;;;;;4.53;1.00;;;9.20;50.50;;;;;;5033784;28;20430;-48
2022/02/25 04:10:51;;;;;;;4.30;1.17;;;9.20;50.60;;;;;;5038171;28;20211;-48
2022/02/25 04:13:18;;;;;;;4.47;1.13;;;9.10;50.50;;;;;;5029563;28;20424;-47
2022/02/25 04:15:43;;;;;;;4.77;1.23;;;9.10;50.50;;;;;;5030809;28;20953;-48
2022/02/25 04:18:10;;;;;;;5.33;1.23;;;9.10;50.60;;;;;;5028646;28;20475;-47
2022/02/25 04:20:36;;;;;;;4.87;1.50;;;9.10;50.60;;;;;;5030628;28;20189;-48
2022/02/25 04:23:02;;;;;;;5.90;1.07;;;9.20;50.70;;;;;;5031546;28;20443;-48
2022/02/25 04:25:28;;;;;;;7.33;1.93;;;9.10;50.90;;;;;;5034722;28;20815;-47
2022/02/25 04:27:54;;;;;;;6.67;1.20;;;9.10;51.00;;;;;;5034304;28;20581;-46
2022/02/25 04:30:19;;;;;;;2.23;1.30;;;9.10;50.90;;;;;;5034822;28;20264;-47
2022/02/25 04:32:45;;;;;;;4.23;1.70;;;9.20;50.80;;;;;;5033461;28;20205;-47
2022/02/25 04:35:11;;;;;;;4.57;2.30;;;9.30;50.50;;;;;;5034494;28;20229;-46
2022/02/25 04:37:37;;;;;;;3.63;1.10;;;9.30;50.40;;;;;;5033983;28;20810;-46
2022/02/25 04:40:05;;;;;;;3.23;1.40;;;9.30;50.50;;;;;;5038141;28;20423;-50
2022/02/25 04:42:30;;;;;;;4.40;1.40;;;9.40;50.60;;;;;;5044602;28;20244;-46
2022/02/25 04:44:56;;;;;;;8.00;1.50;;;9.40;50.50;;;;;;5032536;28;20424;-48
2022/02/25 04:47:21;;;;;;;4.03;1.27;;;9.40;50.30;;;;;;5034630;28;20181;-46
2022/02/25 04:49:47;;;;;;;6.90;1.47;;;9.50;50.00;;;;;;5033675;28;20193;-47
2022/02/25 04:52:13;;;;;;;4.60;1.10;;;9.50;50.00;;;;;;5033876;28;20197;-50
2022/02/25 04:54:39;;;;;;;6.63;1.50;;;9.50;49.90;;;;;;5033382;28;20259;-46
2022/02/25 04:57:05;;;;;;;5.50;1.43;;;9.50;50.10;;;;;;5034207;28;20431;-47
2022/02/25 04:59:30;;;;;;;2.13;1.73;;;9.50;50.10;;;;;;5033596;28;20828;-46
2022/02/25 05:01:56;;;;;;;4.73;1.50;;;9.50;50.00;;;;;;5033672;28;20189;-48
2022/02/25 05:04:21;;;;;;;3.70;1.97;;;9.50;50.00;;;;;;5033355;28;20193;-45
2022/02/25 05:06:47;;;;;;;2.67;1.60;;;9.50;49.90;;;;;;5033705;28;20208;-46
2022/02/25 05:09:13;;;;;;;1.60;1.20;;;9.60;49.80;;;;;;5043395;28;20192;-47
2022/02/25 05:11:38;;;;;;;6.53;1.77;;;9.60;49.50;;;;;;5031760;28;20185;-46
2022/02/25 05:14:04;;;;;;;8.30;1.70;;;9.50;49.30;;;;;;5033066;28;20281;-49
2022/02/25 05:21:58;;;;;;;1.60;1.07;;;9.50;49.00;;;;;;5033324;28;20492;-46
2022/02/25 05:24:23;;;;;;;5.13;1.70;;;9.50;48.90;;;;;;5032913;28;20428;-46
2022/02/25 05:26:49;;;;;;;6.83;1.43;;;9.50;49.00;;;;;;5033580;28;20193;-45
2022/02/25 05:29:14;;;;;;;1.90;1.30;;;9.60;49.00;;;;;;5033051;28;20193;-49
2022/02/25 05:31:40;;;;;;;5.30;1.50;;;9.60;49.10;;;;;;5033141;28;20196;-49
2022/02/25 05:34:06;;;;;;;4.67;1.70;;;9.60;49.10;;;;;;5032464;28;20185;-46
2022/02/25 05:36:31;;;;;;;2.87;1.30;;;9.60;49.00;;;;;;5033559;28;20236;-47
2022/02/25 05:38:57;;;;;;;2.80;1.07;;;9.60;49.00;;;;;;5031046;28;20696;-46
2022/02/25 05:41:23;;;;;;;2.90;1.00;;;9.70;49.00;;;;;;5048030;28;20197;-47
2022/02/25 05:43:49;;;;;;;2.40;1.20;;;9.70;48.70;;;;;;5048299;28;20251;-50
2022/02/25 05:46:15;;;;;;;3.27;1.30;;;9.70;48.60;;;;;;5033192;28;20557;-47
2022/02/25 05:48:40;;;;;;;3.13;0.90;;;9.70;48.60;;;;;;5032892;28;20201;-47
2022/02/25 05:51:06;;;;;;;5.73;1.70;;;9.70;48.60;;;;;;5033191;28;20424;-46
2022/02/25 05:53:32;;;;;;;2.20;1.50;;;9.70;48.70;;;;;;5031820;28;20226;-45
2022/02/25 05:55:58;;;;;;;2.70;1.27;;;9.70;48.70;;;;;;5032937;28;20229;-48
2022/02/25 05:58:24;;;;;;;4.80;1.17;;;9.70;48.80;;;;;;5032313;28;20219;-46
2022/02/25 06:00:49;;;;;;;5.20;1.27;;;9.70;49.50;;;;;;5032917;28;20200;-47
2022/02/25 06:03:15;;;;;;;9.80;1.80;;;9.60;48.80;;;;;;5032062;28;20567;-46
2022/02/25 06:05:41;;;;;;;5.80;1.70;;;9.60;48.90;;;;;;5030874;28;20205;-48
2022/02/25 06:08:06;;;;;;;6.67;1.30;;;9.60;49.10;;;;;;5032953;28;20842;-46
2022/02/25 06:10:32;;;;;;;7.67;1.67;;;9.60;49.10;;;;;;5043362;28;20197;-46
2022/02/25 06:13:00;;;;;;;2.73;1.47;;;9.60;48.90;;;;;;5031746;28;20205;-46
2022/02/25 06:15:25;;;;;;;3.23;2.03;;;9.60;49.00;;;;;;5032603;28;20596;-47
2022/02/25 06:17:51;;;;;;;8.47;3.03;;;9.60;49.00;;;;;;5032067;28;20436;-46
2022/02/25 06:20:18;;;;;;;9.00;1.87;;;9.70;49.20;;;;;;5032393;28;20189;-46
2022/02/25 06:22:44;;;;;;;9.07;1.70;;;9.70;49.50;;;;;;5031327;28;20205;-46
2022/02/25 06:25:10;;;;;;;6.70;1.70;;;9.60;49.30;;;;;;5032469;28;20420;-46
2022/02/25 06:27:38;;;;;;;6.73;1.70;;;9.60;49.50;;;;;;5031821;28;20416;-46
2022/02/25 06:30:06;;;;;;;5.90;1.50;;;9.40;49.30;;;;;;5032277;28;20435;-46
2022/02/25 06:32:31;;;;;;;5.20;1.30;;;9.30;49.70;;;;;;5029725;28;20806;-48
2022/02/25 06:34:57;;;;;;;9.53;2.33;;;9.10;49.80;;;;;;5031830;28;20565;-48
2022/02/25 06:37:23;;;;;;;4.80;1.90;;;9.10;50.00;;;;;;5032267;28;20696;-46
2022/02/25 06:39:48;;;;;;;8.33;2.80;;;9.20;49.90;;;;;;5033053;28;20280;-45
2022/02/25 06:42:14;;;;;;;7.90;2.60;;;9.30;49.80;;;;;;5051448;28;20307;-46
2022/02/25 06:44:39;;;;;;;8.27;2.60;;;9.40;49.80;;;;;;5022132;28;20641;-46
2022/02/25 06:47:05;;;;;;;9.97;3.70;;;9.50;49.70;;;;;;5031347;28;20607;-45
2022/02/25 06:49:31;;;;;;;10.37;3.03;;;9.40;49.50;;;;;;5031434;28;20238;-46
2022/02/25 06:51:57;;;;;;;3.40;2.43;;;9.40;49.50;;;;;;5031424;28;20568;-48
2022/02/25 06:54:22;;;;;;;5.30;2.13;;;9.40;49.70;;;;;;5031532;28;20428;-50
2022/02/25 06:56:48;;;;;;;3.83;1.90;;;9.40;49.80;;;;;;5031428;28;20189;-46
2022/02/25 06:59:14;;;;;;;4.70;2.03;;;9.50;50.00;;;;;;5030591;28;20204;-46
2022/02/25 07:01:39;;;;;;;6.70;2.47;;;9.50;50.10;;;;;;5030323;28;20210;-45
2022/02/25 07:04:05;;;;;;;5.50;2.27;;;9.70;50.00;;;;;;5030901;28;20231;-48
2022/02/25 07:06:32;;;;;;;4.90;2.03;;;9.80;49.70;;;;;;5031497;28;20584;-47
2022/02/25 07:08:58;;;;;;;4.60;2.17;;;9.90;49.40;;;;;;5039107;28;20554;-46
2022/02/25 07:11:24;;;;;;;6.47;2.00;;;9.70;49.30;;;;;;5034540;28;20424;-46
2022/02/25 07:13:49;;;;;;;5.23;1.53;;;9.80;49.30;;;;;;5030939;28;20185;-48
2022/02/25 07:16:15;;;;;;;3.47;1.80;;;10.00;48.10;;;;;;5031155;28;20228;-45
2022/02/25 07:18:41;;;;;;;3.70;1.53;;;10.10;47.70;;;;;;5030780;28;20193;-48
2022/02/25 07:21:08;;;;;;;4.37;1.70;;;10.30;47.60;;;;;;5031323;28;20432;-46
2022/02/25 07:23:34;;;;;;;5.40;1.93;;;10.60;47.20;;;;;;5030350;28;20284;-48
2022/02/25 07:26:00;;;;;;;4.67;1.73;;;10.90;46.80;;;;;;5031212;28;20507;-47
2022/02/25 07:28:25;;;;;;;3.97;2.33;;;11.10;46.30;;;;;;5029331;28;20191;-47
2022/02/25 07:30:52;;;;;;;5.40;1.80;;;11.30;45.80;;;;;;5031221;28;20922;-47
2022/02/25 07:33:19;;;;;;;5.20;1.50;;;11.30;45.20;;;;;;5030340;28;20201;-49
2022/02/25 07:35:45;;;;;;;2.70;1.30;;;11.40;45.10;;;;;;5030731;28;20557;-46
2022/02/25 07:38:11;;;;;;;3.80;1.30;;;11.50;44.70;;;;;;5030576;28;20413;-45
2022/02/25 07:40:36;;;;;;;5.37;1.63;;;11.70;44.80;;;;;;5038982;28;20193;-47
2022/02/25 07:43:02;;;;;;;4.83;1.83;;;11.80;44.50;;;;;;5050193;28;20286;-45
2022/02/25 07:45:28;;;;;;;2.87;1.10;;;11.70;45.20;;;;;;5033233;28;20223;-46
2022/02/25 07:47:55;;;;;;;7.83;1.73;;;11.80;45.10;;;;;;5030598;28;20213;-45
2022/02/25 07:50:21;;;;;;;4.10;1.80;;;11.90;44.80;;;;;;5031002;28;20799;-46
2022/02/25 07:52:47;;;;;;;3.00;1.40;;;11.90;44.90;;;;;;5030238;28;20627;-48
2022/02/25 07:55:14;;;;;;;6.57;1.50;;;11.90;43.80;;;;;;5029350;28;20328;-47
2022/02/25 07:57:40;;;;;;;3.10;2.00;;;11.80;43.60;;;;;;5030050;28;20431;-46
2022/02/25 08:00:09;;;;;;;5.87;1.53;;;11.60;43.80;;;;;;5031010;28;20420;-46
2022/02/25 08:02:35;;;;;;;2.77;1.53;;;11.80;44.70;;;;;;5030076;28;20201;-47
2022/02/25 08:05:01;;;;;;;5.03;1.90;;;11.80;43.40;;;;;;5030598;28;20913;-46
2022/02/25 08:07:27;;;;;;;3.93;2.00;;;11.90;43.60;;;;;;5031054;28;20526;-48
2022/02/25 08:09:53;;;;;;;3.60;1.37;;;11.70;43.10;;;;;;5040376;28;20201;-45
2022/02/25 08:12:19;;;;;;;3.33;1.40;;;11.20;43.40;;;;;;5030487;28;20197;-46
2022/02/25 08:14:44;;;;;;;3.33;1.70;;;10.90;44.20;;;;;;5029871;28;20463;-47
2022/02/25 08:17:10;;;;;;;5.50;1.83;;;11.00;44.60;;;;;;5030419;28;20637;-46
2022/02/25 08:19:35;;;;;;;5.93;1.80;;;11.10;44.60;;;;;;5030311;28;20207;-48
2022/02/25 08:22:02;;;;;;;5.40;2.13;;;11.20;45.00;;;;;;5028651;28;20215;-50
2022/02/25 08:24:27;;;;;;;6.97;2.10;;;11.30;44.60;;;;;;5029697;28;20243;-49
2022/02/25 08:26:53;;;;;;;5.60;1.97;;;11.40;44.50;;;;;;5030642;28;20428;-46
2022/02/25 08:29:18;;;;;;;5.20;1.60;;;11.20;43.60;;;;;;5029932;28;20217;-46
2022/02/25 08:31:45;;;;;;;9.10;1.97;;;11.10;44.40;;;;;;5030207;28;20243;-46
2022/02/25 08:34:11;;;;;;;3.70;1.57;;;10.90;44.00;;;;;;5030024;28;20183;-46
2022/02/25 08:36:37;;;;;;;5.30;1.80;;;10.70;43.60;;;;;;5030612;28;20509;-48
2022/02/25 08:39:04;;;;;;;5.10;2.20;;;10.60;44.40;;;;;;5029734;28;20428;-48
2022/02/25 08:41:30;;;;;;;2.07;1.30;;;10.30;44.80;;;;;;5045028;28;20977;-47
2022/02/25 08:43:55;;;;;;;5.20;1.70;;;10.30;44.90;;;;;;5043823;28;20435;-46
2022/02/25 08:46:22;;;;;;;9.10;1.97;;;10.30;45.20;;;;;;5030406;28;20197;-47
2022/02/25 08:48:48;;;;;;;5.50;1.53;;;10.50;45.40;;;;;;5027900;28;20305;-47
2022/02/25 08:51:13;;;;;;;4.60;1.93;;;10.50;45.00;;;;;;5030101;28;20523;-46
2022/02/25 08:53:39;;;;;;;6.43;1.60;;;10.50;45.20;;;;;;5029728;28;20632;-46
2022/02/25 08:56:08;;;;;;;5.20;1.37;;;10.50;45.30;;;;;;5030431;28;20221;-48
2022/02/25 08:58:34;;;;;;;5.63;1.77;;;10.60;45.10;;;;;;5029453;28;20347;-50
2022/02/25 09:01:00;;;;;;;10.90;2.33;;;10.50;44.60;;;;;;5030157;28;20954;-47
2022/02/25 09:03:25;;;;;;;6.27;2.30;;;10.50;45.30;;;;;;5029559;28;20463;-49
2022/02/25 09:05:51;;;;;;;6.33;1.60;;;10.30;45.10;;;;;;5030496;28;20993;-48
2022/02/25 09:08:17;;;;;;;4.73;1.73;;;10.20;45.10;;;;;;5032282;28;20617;-47
2022/02/25 09:10:44;;;;;;;5.27;1.70;;;10.40;45.60;;;;;;5041759;28;20201;-48
2022/02/25 09:13:10;;;;;;;5.57;1.60;;;10.30;44.80;;;;;;5032540;28;20193;-48
2022/02/25 09:15:36;;;;;;;4.47;1.57;;;10.30;44.70;;;;;;5032098;28;20481;-48
2022/02/25 09:18:04;;;;;;;3.17;1.60;;;10.30;45.10;;;;;;5032776;28;20416;-50
2022/02/25 09:20:29;;;;;;;7.23;1.70;;;10.20;44.80;;;;;;5033526;28;20189;-52
2022/02/25 09:22:56;;;;;;;5.10;1.70;;;10.10;44.90;;;;;;5032716;28;20439;-49
2022/02/25 09:25:22;;;;;;;4.93;1.70;;;10.30;44.80;;;;;;5033737;28;20193;-53
2022/02/25 09:27:48;;;;;;;3.57;1.37;;;10.60;44.90;;;;;;5032840;28;20428;-52
2022/02/25 09:30:14;;;;;;;4.00;1.50;;;10.50;44.20;;;;;;5033562;28;20207;-52
2022/02/25 09:32:40;;;;;;;4.33;1.40;;;10.40;44.30;;;;;;5032409;28;20236;-52
2022/02/25 09:35:08;;;;;;;4.80;1.70;;;10.70;44.70;;;;;;5033322;28;20479;-51
2022/02/25 09:37:35;;;;;;;4.07;1.30;;;10.50;43.30;;;;;;5032801;28;20868;-48
2022/02/25 09:40:06;;;;;;;5.07;1.83;;;10.60;43.50;;;;;;5036397;28;20835;-51
2022/02/25 09:42:32;;;;;;;8.20;1.40;;;10.60;42.50;;;;;;5048168;28;20490;-49
2022/02/25 09:44:57;;;;;;;3.00;1.20;;;10.10;42.60;;;;;;5039537;28;20422;-49
2022/02/25 09:47:24;;;;;;;5.10;1.10;;;10.20;43.50;;;;;;5033336;28;20432;-51
2022/02/25 09:49:50;;;;;;;6.97;2.03;;;10.40;43.40;;;;;;5032519;28;20185;-50
2022/02/25 09:52:17;;;;;;;5.20;1.83;;;10.60;43.20;;;;;;5032590;28;21294;-51
2022/02/25 09:54:43;;;;;;;3.53;1.30;;;10.90;42.80;;;;;;5032253;28;20455;-49
2022/02/25 09:57:09;;;;;;;5.70;1.60;;;11.20;42.60;;;;;;5033085;28;20489;-52
2022/02/25 09:59:35;;;;;;;4.80;1.70;;;11.60;42.30;;;;;;5032326;28;20416;-52
2022/02/25 10:02:02;;;;;;;4.50;1.30;;;11.60;41.30;;;;;;5032663;28;20477;-51
2022/02/25 10:04:29;;;;;;;10.83;1.70;;;11.70;40.40;;;;;;5014671;28;20506;-52
2022/02/25 10:06:54;;;;;;;4.10;1.20;;;11.80;41.30;;;;;;5032941;28;20432;-50
2022/02/25 10:09:34;;;;;;;3.47;1.30;;;11.70;40.00;;;;;;5041256;28;20477;-51
2022/02/25 10:12:02;;;;;;;6.10;1.47;;;11.50;39.40;;;;;;5032386;28;20208;-52
2022/02/25 10:14:33;;;;;;;2.10;0.97;;;11.40;39.80;;;;;;5032144;28;20444;-51
2022/02/25 10:17:25;;;;;;;3.13;1.10;;;11.10;39.50;;;;;;5032552;28;20531;-51
2022/02/25 10:19:53;;;;;;;3.87;1.37;;;10.90;39.20;;;;;;5031192;28;20519;-49
2022/02/25 10:22:23;;;;;;;4.90;1.43;;;11.30;39.80;;;;;;5032381;28;20431;-53
2022/02/25 10:24:53;;;;;;;4.10;1.77;;;11.50;39.60;;;;;;5032083;28;20780;-49
2022/02/25 10:27:20;;;;;;;3.67;1.63;;;11.60;39.00;;;;;;5032229;28;20436;-52
2022/02/25 10:29:57;;;;;;;4.00;1.43;;;11.50;38.30;;;;;;5031696;28;21021;-48
2022/02/25 10:32:28;;;;;;;1.90;1.07;;;11.40;38.40;;;;;;5032069;28;20432;-52
2022/02/25 10:34:54;;;;;;;4.23;1.53;;;11.20;37.00;;;;;;5032079;28;20471;-51
2022/02/25 10:37:20;;;;;;;5.00;1.93;;;11.30;38.70;;;;;;5030630;28;20421;-48
2022/02/25 10:39:47;;;;;;;12.60;1.60;;;11.50;38.40;;;;;;5032698;28;20205;-46
2022/02/25 10:42:15;;;;;;;3.63;1.70;;;11.60;37.80;;;;;;5051442;28;20528;-47
2022/02/25 10:44:53;;;;;;;2.80;1.50;;;11.70;37.90;;;;;;5040185;28;20428;-46
2022/02/25 10:47:23;;;;;;;3.93;1.13;;;11.90;38.60;;;;;;5032000;28;20439;-47
2022/02/25 10:50:09;;;;;;;2.43;1.20;;;11.60;37.00;;;;;;5031528;28;20440;-48
2022/02/25 10:52:37;;;;;;;6.40;1.50;;;11.80;37.50;;;;;;5030520;28;20951;-48
2022/02/25 10:55:06;;;;;;;3.47;1.27;;;12.00;37.20;;;;;;5031957;28;20843;-48
2022/02/25 10:57:34;;;;;;;8.37;2.00;;;11.80;36.30;;;;;;5029620;28;20436;-48
2022/02/25 11:00:03;;;;;;;4.43;2.03;;;12.00;36.80;;;;;;5031661;28;20455;-51
2022/02/25 11:02:34;;;;;;;8.13;1.30;;;11.90;36.50;;;;;;5030735;28;20452;-49
2022/02/25 11:05:41;;;;;;;6.70;1.60;;;11.90;37.10;;;;;;5030896;28;20475;-49
2022/02/25 11:08:06;;;;;;;3.60;1.70;;;11.90;37.20;;;;;;4966474;28;20961;-47
2022/02/25 11:10:34;;;;;;;2.60;1.00;;;11.90;37.20;;;;;;5019866;28;20431;-48
2022/02/25 11:13:06;;;;;;;1.93;1.10;;;11.60;36.30;;;;;;5030373;28;20576;-48
2022/02/25 11:15:35;;;;;;;3.23;1.00;;;11.70;37.90;;;;;;5031633;28;20483;-50
2022/02/25 11:18:01;;;;;;;3.47;1.57;;;11.70;37.50;;;;;;5030595;28;20427;-48
2022/02/25 11:20:31;;;;;;;3.77;1.63;;;11.60;37.40;;;;;;5031552;28;20515;-47
2022/02/25 11:23:03;;;;;;;5.43;2.10;;;11.50;37.60;;;;;;5030248;28;20424;-46
2022/02/25 11:25:29;;;;;;;8.80;1.60;;;11.20;37.80;;;;;;5031260;28;20502;-53
2022/02/25 11:27:56;;;;;;;8.37;1.70;;;11.40;38.50;;;;;;5030568;28;20440;-46
2022/02/25 11:30:44;;;;;;;2.40;1.30;;;11.70;39.20;;;;;;5029664;28;20443;-53
2022/02/25 11:33:11;;;;;;;9.27;1.50;;;11.90;38.00;;;;;;5030285;28;20482;-48
2022/02/25 11:35:58;;;;;;;4.27;1.30;;;12.00;37.10;;;;;;5030826;28;20487;-52
2022/02/25 11:38:31;;;;;;;3.77;1.23;;;12.40;36.40;;;;;;5030985;28;20816;-51
2022/02/25 11:41:23;;;;;;;2.70;1.37;;;12.50;35.30;;;;;;5041585;28;20431;-51
2022/02/25 11:44:01;;;;;;;8.20;2.13;;;12.20;34.30;;;;;;5045552;28;20847;-48
2022/02/25 11:46:29;;;;;;;4.10;1.10;;;12.00;35.40;;;;;;5030908;28;20498;-50
2022/02/25 11:49:18;;;;;;;2.40;1.30;;;11.70;35.30;;;;;;5029328;28;20451;-51
2022/02/25 11:51:47;;;;;;;4.20;1.53;;;11.70;35.80;;;;;;5030689;28;20810;-49
2022/02/25 11:54:24;;;;;;;1.67;0.90;;;11.70;35.30;;;;;;5030331;28;20857;-46
2022/02/25 11:57:04;;;;;;;3.67;1.30;;;11.90;35.20;;;;;;5029508;28;20485;-52
2022/02/25 11:59:32;;;;;;;2.40;1.50;;;12.00;35.80;;;;;;5030342;28;20447;-46
2022/02/25 12:02:16;;;;;;;2.87;1.20;;;12.40;35.90;;;;;;5030362;28;20436;-47
2022/02/25 12:05:08;;;;;;;6.10;0.97;;;12.50;35.20;;;;;;5030334;28;20838;-48
2022/02/25 12:07:40;;;;;;;4.10;1.40;;;12.30;33.70;;;;;;5030279;28;20482;-48
2022/02/25 12:10:12;;;;;;;4.93;1.50;;;12.40;34.60;;;;;;5040605;28;21005;-50
2022/02/25 12:13:00;;;;;;;6.10;1.20;;;12.10;34.10;;;;;;5029593;28;20864;-51
2022/02/25 12:15:39;;;;;;;1.63;1.20;;;12.10;34.80;;;;;;5030815;28;20558;-52
2022/02/25 12:18:07;;;;;;;2.67;1.23;;;12.00;35.20;;;;;;5029765;28;20432;-49
2022/02/25 12:20:38;;;;;;;3.80;1.17;;;11.80;35.40;;;;;;5030670;28;20497;-53
2022/02/25 12:23:08;;;;;;;3.90;1.07;;;11.50;35.50;;;;;;5029587;28;20455;-46
2022/02/25 12:25:40;;;;;;;3.23;1.10;;;11.40;35.40;;;;;;5029106;28;20439;-52
2022/02/25 12:28:14;;;;;;;4.37;1.60;;;11.80;35.60;;;;;;5029821;28;20444;-50
2022/02/25 12:30:47;;;;;;;9.10;1.40;;;11.70;34.80;;;;;;5030637;28;20439;-48
2022/02/25 12:33:43;;;;;;;4.23;1.03;;;12.00;35.40;;;;;;5030187;28;20439;-47
2022/02/25 12:36:20;;;;;;;6.03;1.33;;;12.10;35.20;;;;;;5030507;28;20494;-51
2022/02/25 12:38:49;;;;;;;3.80;1.07;;;11.80;34.90;;;;;;5029732;28;20436;-52
2022/02/25 12:41:23;;;;;;;9.40;1.67;;;11.80;35.60;;;;;;5043598;28;20918;-52
2022/02/25 12:43:58;;;;;;;1.80;1.20;;;12.10;35.60;;;;;;5046434;28;20539;-52
2022/02/25 12:46:37;;;;;;;3.40;1.30;;;12.30;35.70;;;;;;5034506;28;20485;-49
2022/02/25 12:49:05;;;;;;;2.30;1.17;;;12.40;35.10;;;;;;5033637;28;20485;-53
2022/02/25 12:51:31;;;;;;;1.70;0.90;;;12.20;34.60;;;;;;5032248;28;20439;-49
2022/02/25 12:54:02;;;;;;;3.47;1.53;;;12.20;35.00;;;;;;5033585;28;20566;-49
2022/02/25 12:56:33;;;;;;;5.77;1.23;;;11.70;35.30;;;;;;5033898;28;20688;-47
2022/02/25 12:59:08;;;;;;;3.40;1.80;;;11.80;36.20;;;;;;5033240;28;20431;-49
2022/02/25 13:01:38;;;;;;;3.50;1.47;;;12.00;36.70;;;;;;5033516;28;20518;-51